Time;durP1;ratioP1;P1;durP2;ratioP2;P2;SDS_P1;SDS_P2;PMS_P1;PMS_P2;Temp;Humidity;BMP_temperature;BMP_pressure;BME280_temperature;BME280_humidity;BME280_pressure;Samples;Min_cycle;Max_cycle;Signal;HPM_P1;HPM_P2
2023/04/23 00:02:48;;;;;;;18.92;14.85;;;;;;;;;;6270407;28;20065;-77
2023/04/23 00:05:53;;;;;;;21.65;15.65;;;;;;;;;;6271209;28;20060;-74
2023/04/23 00:08:55;;;;;;;20.27;14.73;;;;;;;;;;6273090;28;20052;-75
2023/04/23 00:11:57;;;;;;;22.02;15.10;;;;;;;;;;6272912;28;20119;-76
2023/04/23 00:15:01;;;;;;;24.30;15.43;;;;;;;;;;6267474;28;20072;-80
2023/04/23 00:18:03;;;;;;;19.77;15.23;;;;;;;;;;6271290;28;20098;-75
2023/04/23 00:21:05;;;;;;;21.40;15.55;;;;;;;;;;6277648;28;20064;-76
2023/04/23 00:24:07;;;;;;;21.73;15.15;;;;;;;;;;6270296;28;20045;-77
2023/04/23 00:27:09;;;;;;;19.55;14.98;;;;;;;;;;6276404;28;20087;-76
2023/04/23 00:30:12;;;;;;;23.58;14.90;;;;;;;;;;6273434;28;20155;-84
2023/04/23 00:33:14;;;;;;;19.92;15.20;;;;;;;;;;6276634;28;20041;-79
2023/04/23 00:36:16;;;;;;;20.02;15.70;;;;;;;;;;6274890;28;20109;-77
2023/04/23 00:39:17;;;;;;;21.63;15.88;;;;;;;;;;6275035;28;20351;-77
2023/04/23 00:42:19;;;;;;;21.58;15.80;;;;;;;;;;6273719;28;20068;-83
2023/04/23 00:45:22;;;;;;;20.23;14.50;;;;;;;;;;6274095;28;20091;-77
2023/04/23 00:48:24;;;;;;;24.27;16.30;;;;;;;;;;6274442;28;20056;-79
2023/04/23 00:51:26;;;;;;;21.65;16.10;;;;;;;;;;6274361;28;20099;-74
2023/04/23 00:54:27;;;;;;;24.42;16.50;;;;;;;;;;6272999;28;20092;-75
2023/04/23 00:57:29;;;;;;;23.55;16.42;;;;;;;;;;6275000;28;20079;-75
2023/04/23 01:00:33;;;;;;;26.85;17.42;;;;;;;;;;6276104;28;20217;-74
2023/04/23 01:03:36;;;;;;;30.42;17.80;;;;;;;;;;6273537;28;20094;-74
2023/04/23 01:06:38;;;;;;;25.83;15.53;;;;;;;;;;6274720;28;20057;-76
2023/04/23 01:09:39;;;;;;;23.40;15.65;;;;;;;;;;6270572;28;20053;-75
2023/04/23 01:12:41;;;;;;;20.05;15.55;;;;;;;;;;6274953;28;20048;-74
2023/04/23 01:15:44;;;;;;;21.35;16.17;;;;;;;;;;6277241;28;20057;-74
2023/04/23 01:18:46;;;;;;;20.90;15.35;;;;;;;;;;6274589;28;20064;-84
2023/04/23 01:21:49;;;;;;;19.52;15.65;;;;;;;;;;6274305;28;20402;-75
2023/04/23 01:24:52;;;;;;;22.48;15.38;;;;;;;;;;6274079;28;20458;-75
2023/04/23 01:27:54;;;;;;;20.02;14.60;;;;;;;;;;6276527;28;20205;-78
2023/04/23 01:30:56;;;;;;;18.25;13.68;;;;;;;;;;6274352;28;20052;-77
2023/04/23 01:33:59;;;;;;;29.33;16.02;;;;;;;;;;6272015;28;20060;-78
2023/04/23 01:37:00;;;;;;;22.48;14.93;;;;;;;;;;6274384;28;20063;-77
2023/04/23 01:40:04;;;;;;;22.35;15.30;;;;;;;;;;6272728;28;20072;-80
2023/04/23 01:43:08;;;;;;;20.27;15.85;;;;;;;;;;6275096;28;20072;-77
2023/04/23 01:46:10;;;;;;;23.88;16.50;;;;;;;;;;6275149;28;20064;-76
2023/04/23 01:49:12;;;;;;;19.98;15.95;;;;;;;;;;6271027;28;20056;-76
2023/04/23 01:52:13;;;;;;;19.42;15.45;;;;;;;;;;6276078;28;20285;-76
2023/04/23 01:55:17;;;;;;;19.65;14.60;;;;;;;;;;6271596;28;20332;-76
2023/04/23 01:58:19;;;;;;;18.58;13.68;;;;;;;;;;6271357;28;20056;-75
2023/04/23 02:01:21;;;;;;;11.85;8.75;;;;;;;;;;6272208;28;20046;-75
2023/04/23 02:04:23;;;;;;;11.38;8.40;;;;;;;;;;6272148;28;20338;-76
2023/04/23 02:07:24;;;;;;;9.45;6.55;;;;;;;;;;6273962;28;20272;-79
2023/04/23 02:10:28;;;;;;;9.48;6.72;;;;;;;;;;6277353;28;20057;-78
2023/04/23 02:13:30;;;;;;;11.57;6.32;;;;;;;;;;6274384;28;20091;-76
2023/04/23 02:16:31;;;;;;;9.00;6.90;;;;;;;;;;6268175;28;20059;-75
2023/04/23 02:19:34;;;;;;;8.68;6.35;;;;;;;;;;6274627;28;20052;-76
2023/04/23 02:22:36;;;;;;;9.60;6.00;;;;;;;;;;6273642;28;20356;-75
2023/04/23 02:25:39;;;;;;;8.63;5.75;;;;;;;;;;6275296;28;20045;-77
2023/04/23 02:28:41;;;;;;;7.33;5.83;;;;;;;;;;6272489;28;20053;-84
2023/04/23 02:31:43;;;;;;;8.30;5.35;;;;;;;;;;6273629;28;20053;-77
2023/04/23 02:34:45;;;;;;;8.23;5.63;;;;;;;;;;6269567;28;20045;-76
2023/04/23 02:37:46;;;;;;;11.23;5.93;;;;;;;;;;6274603;28;20064;-78
2023/04/23 02:40:49;;;;;;;9.52;5.43;;;;;;;;;;6271546;28;20420;-75
2023/04/23 02:43:51;;;;;;;9.47;5.43;;;;;;;;;;6271633;28;20056;-81
2023/04/23 02:46:53;;;;;;;7.82;5.00;;;;;;;;;;6274796;28;20060;-77
2023/04/23 02:49:54;;;;;;;8.27;5.00;;;;;;;;;;6267508;28;20052;-76
2023/04/23 02:52:56;;;;;;;7.72;5.40;;;;;;;;;;6270429;28;20068;-77
2023/04/23 02:56:00;;;;;;;9.13;5.82;;;;;;;;;;6275652;28;20052;-76
2023/04/23 02:59:01;;;;;;;7.95;5.13;;;;;;;;;;6271665;28;22244;-76
2023/04/23 03:02:03;;;;;;;8.45;4.53;;;;;;;;;;6270982;28;20295;-80
2023/04/23 03:05:06;;;;;;;5.72;4.57;;;;;;;;;;6274679;28;20202;-76
2023/04/23 03:08:07;;;;;;;7.32;4.80;;;;;;;;;;6272681;28;20052;-85
2023/04/23 03:11:10;;;;;;;5.75;4.05;;;;;;;;;;6273163;28;20345;-76
2023/04/23 03:14:12;;;;;;;10.40;3.97;;;;;;;;;;6270428;28;20056;-81
2023/04/23 03:17:14;;;;;;;6.45;3.90;;;;;;;;;;6274519;28;20057;-76
2023/04/23 03:20:15;;;;;;;8.52;4.25;;;;;;;;;;6268487;28;20336;-82
2023/04/23 03:23:17;;;;;;;6.10;3.47;;;;;;;;;;6271972;28;20061;-76
2023/04/23 03:26:20;;;;;;;4.72;3.50;;;;;;;;;;6269759;28;21111;-76
2023/04/23 03:29:21;;;;;;;5.53;4.15;;;;;;;;;;6268486;28;20056;-82
2023/04/23 03:32:23;;;;;;;6.85;4.32;;;;;;;;;;6270086;28;20057;-76
2023/04/23 03:35:25;;;;;;;6.32;3.95;;;;;;;;;;6268519;28;20099;-76
2023/04/23 03:38:26;;;;;;;5.70;4.35;;;;;;;;;;6264263;28;20045;-76
2023/04/23 03:41:29;;;;;;;4.38;3.60;;;;;;;;;;6268789;28;20063;-78
2023/04/23 03:44:31;;;;;;;6.10;4.00;;;;;;;;;;6272939;28;20111;-77
2023/04/23 03:47:33;;;;;;;5.97;3.75;;;;;;;;;;6273553;28;20056;-76
2023/04/23 03:50:39;;;;;;;5.78;4.20;;;;;;;;;;6272482;28;20091;-77
2023/04/23 03:53:40;;;;;;;8.48;4.35;;;;;;;;;;6271080;28;20059;-80
2023/04/23 03:56:44;;;;;;;6.55;4.63;;;;;;;;;;6275777;28;20122;-77
2023/04/23 03:59:45;;;;;;;7.77;4.43;;;;;;;;;;6276182;28;20099;-75
2023/04/23 04:02:47;;;;;;;9.25;5.63;;;;;;;;;;6272805;28;20045;-80
2023/04/23 04:05:48;;;;;;;5.82;4.40;;;;;;;;;;6277429;28;20056;-75
2023/04/23 04:08:50;;;;;;;6.10;4.78;;;;;;;;;;6275751;28;20106;-77
2023/04/23 04:11:53;;;;;;;5.68;4.63;;;;;;;;;;6275444;28;20317;-76
2023/04/23 04:14:55;;;;;;;6.88;4.40;;;;;;;;;;6275326;28;20128;-81
2023/04/23 04:17:56;;;;;;;6.60;4.75;;;;;;;;;;6273362;28;20130;-77
2023/04/23 04:20:58;;;;;;;6.35;4.78;;;;;;;;;;6276384;28;20103;-76
2023/04/23 04:24:00;;;;;;;7.78;4.97;;;;;;;;;;6275923;28;20283;-78
2023/04/23 04:27:04;;;;;;;10.48;4.57;;;;;;;;;;6275903;28;20382;-79
2023/04/23 04:30:06;;;;;;;;;;;;;;;;;;6275985;28;20057;-77
2023/04/23 04:33:08;;;;;;;7.63;5.20;;;;;;;;;;6277043;28;20254;-77
2023/04/23 04:36:10;;;;;;;9.32;4.72;;;;;;;;;;6274971;28;20099;-76
2023/04/23 04:39:13;;;;;;;7.70;5.03;;;;;;;;;;6275807;28;20117;-81
2023/04/23 04:42:16;;;;;;;11.52;5.90;;;;;;;;;;6273750;28;20400;-76
2023/04/23 04:45:18;;;;;;;8.15;5.13;;;;;;;;;;6274408;28;20057;-78
2023/04/23 04:48:20;;;;;;;8.98;5.60;;;;;;;;;;6272323;28;20283;-76
2023/04/23 04:51:22;;;;;;;8.48;6.25;;;;;;;;;;6276333;28;20064;-76
2023/04/23 04:54:23;;;;;;;9.27;6.53;;;;;;;;;;6274575;28;20289;-77
2023/04/23 04:57:26;;;;;;;10.50;5.63;;;;;;;;;;6272256;28;20061;-84
2023/04/23 05:00:29;;;;;;;8.70;5.27;;;;;;;;;;6274022;28;20059;-76
2023/04/23 05:03:31;;;;;;;7.97;5.13;;;;;;;;;;6273511;28;20261;-77
2023/04/23 05:06:33;;;;;;;8.32;5.45;;;;;;;;;;6272297;28;20082;-76
2023/04/23 05:09:34;;;;;;;9.38;5.70;;;;;;;;;;6274826;28;20065;-75
2023/04/23 05:12:40;;;;;;;12.90;6.75;;;;;;;;;;6273013;28;20114;-76
2023/04/23 05:15:41;;;;;;;7.55;5.75;;;;;;;;;;6276050;28;20052;-76
2023/04/23 05:18:43;;;;;;;9.52;7.10;;;;;;;;;;6272522;28;20048;-78
2023/04/23 05:21:45;;;;;;;10.48;7.05;;;;;;;;;;6273105;28;20272;-79
2023/04/23 05:24:46;;;;;;;9.18;6.75;;;;;;;;;;6273804;28;20053;-86
2023/04/23 05:27:49;;;;;;;9.45;8.13;;;;;;;;;;6270511;28;20352;-76
2023/04/23 05:30:51;;;;;;;9.30;7.43;;;;;;;;;;6271052;28;20049;-78
2023/04/23 05:33:53;;;;;;;11.40;8.32;;;;;;;;;;6275581;28;20106;-78
2023/04/23 05:36:54;;;;;;;11.75;8.07;;;;;;;;;;6275508;28;20065;-76
2023/04/23 05:39:56;;;;;;;12.30;7.70;;;;;;;;;;6271466;28;20065;-76
2023/04/23 05:42:59;;;;;;;11.75;8.48;;;;;;;;;;6271835;28;20069;-81
2023/04/23 05:46:03;;;;;;;14.10;8.67;;;;;;;;;;6269898;28;20041;-76
2023/04/23 05:49:05;;;;;;;13.30;8.23;;;;;;;;;;6270275;28;20065;-77
2023/04/23 05:52:07;;;;;;;14.27;8.65;;;;;;;;;;6270609;28;20060;-77
2023/04/23 05:55:09;;;;;;;12.48;7.93;;;;;;;;;;6276179;28;20256;-80
2023/04/23 05:58:12;;;;;;;8.10;6.45;;;;;;;;;;6271344;28;20045;-76
2023/04/23 06:01:14;;;;;;;8.70;6.20;;;;;;;;;;6273180;28;20052;-76
2023/04/23 06:04:16;;;;;;;9.95;6.65;;;;;;;;;;6272269;28;20063;-76
2023/04/23 06:07:17;;;;;;;8.02;6.47;;;;;;;;;;6270987;28;20048;-77
2023/04/23 06:10:19;;;;;;;8.90;6.00;;;;;;;;;;6274085;28;20103;-79
2023/04/23 06:13:23;;;;;;;7.15;5.78;;;;;;;;;;6273991;28;20237;-77
2023/04/23 06:16:25;;;;;;;6.75;5.18;;;;;;;;;;6269493;28;20115;-76
2023/04/23 06:19:27;;;;;;;7.07;5.38;;;;;;;;;;6270481;28;20277;-76
2023/04/23 06:22:28;;;;;;;8.60;5.43;;;;;;;;;;6275381;28;20049;-78
2023/04/23 06:25:30;;;;;;;8.25;5.43;;;;;;;;;;6270261;28;20229;-76
2023/04/23 06:28:33;;;;;;;7.72;5.95;;;;;;;;;;6275292;28;20100;-77
2023/04/23 06:31:34;;;;;;;11.17;7.50;;;;;;;;;;6271936;28;20072;-76
2023/04/23 06:34:36;;;;;;;10.32;7.72;;;;;;;;;;6272756;28;20060;-76
2023/04/23 06:37:38;;;;;;;12.40;7.50;;;;;;;;;;6274908;28;20099;-77
2023/04/23 06:40:39;;;;;;;8.43;6.82;;;;;;;;;;6271919;28;20083;-78
2023/04/23 06:43:44;;;;;;;7.35;5.72;;;;;;;;;;6272268;28;20111;-77
2023/04/23 06:46:46;;;;;;;7.82;5.78;;;;;;;;;;6272778;28;20967;-77
2023/04/23 06:49:48;;;;;;;5.57;3.47;;;;;;;;;;6273753;28;20060;-76
2023/04/23 06:52:49;;;;;;;4.13;3.00;;;;;;;;;;6273932;28;20103;-77
2023/04/23 06:55:51;;;;;;;5.43;2.70;;;;;;;;;;6273490;28;20041;-80
2023/04/23 06:58:54;;;;;;;5.57;3.67;;;;;;;;;;6265058;28;20095;-76
2023/04/23 07:01:56;;;;;;;3.00;2.38;;;;;;;;;;6265403;28;20053;-81
2023/04/23 07:04:57;;;;;;;4.38;2.65;;;;;;;;;;6271778;28;20291;-78
2023/04/23 07:07:59;;;;;;;3.55;2.47;;;;;;;;;;6270531;28;20045;-77
2023/04/23 07:11:01;;;;;;;3.65;2.72;;;;;;;;;;6271242;28;20056;-77
2023/04/23 07:14:05;;;;;;;5.10;2.63;;;;;;;;;;6270874;28;20056;-79
2023/04/23 07:17:07;;;;;;;3.75;2.75;;;;;;;;;;6274924;28;20065;-74
2023/04/23 07:20:09;;;;;;;3.80;2.90;;;;;;;;;;6276433;28;20103;-73
2023/04/23 07:23:11;;;;;;;4.95;2.80;;;;;;;;;;6279363;28;20352;-74
2023/04/23 07:26:12;;;;;;;5.20;2.80;;;;;;;;;;6274371;28;20303;-73
2023/04/23 07:29:15;;;;;;;4.78;3.13;;;;;;;;;;6273854;28;20067;-73
2023/04/23 07:32:17;;;;;;;4.40;2.33;;;;;;;;;;6276852;28;20260;-73
2023/04/23 07:35:19;;;;;;;3.90;2.72;;;;;;;;;;6273003;28;20060;-73
2023/04/23 07:38:21;;;;;;;3.20;2.50;;;;;;;;;;6273547;28;20049;-73
2023/04/23 07:41:22;;;;;;;3.22;2.47;;;;;;;;;;6274057;28;20082;-73
2023/04/23 07:44:25;;;;;;;4.43;2.80;;;;;;;;;;6278453;28;20110;-74
2023/04/23 07:47:27;;;;;;;4.45;2.40;;;;;;;;;;6270579;28;20091;-74
2023/04/23 07:50:29;;;;;;;2.72;1.92;;;;;;;;;;6272834;28;20061;-73
2023/04/23 07:53:31;;;;;;;3.80;2.60;;;;;;;;;;6275936;28;20075;-76
2023/04/23 07:56:32;;;;;;;3.05;2.05;;;;;;;;;;6276491;28;20395;-74
2023/04/23 07:59:37;;;;;;;3.30;2.33;;;;;;;;;;6270806;28;20052;-74
2023/04/23 08:02:39;;;;;;;3.30;2.50;;;;;;;;;;6270918;28;20056;-75
2023/04/23 08:05:41;;;;;;;4.03;2.42;;;;;;;;;;6270189;28;20333;-73
2023/04/23 08:08:43;;;;;;;2.97;2.20;;;;;;;;;;6271807;28;20218;-74
2023/04/23 08:11:44;;;;;;;5.10;1.75;;;;;;;;;;6271434;28;20106;-73
2023/04/23 08:14:49;;;;;;;4.50;2.10;;;;;;;;;;6267348;28;20057;-73
2023/04/23 08:17:51;;;;;;;2.65;1.60;;;;;;;;;;6271584;28;20052;-76
2023/04/23 08:20:55;;;;;;;2.92;1.90;;;;;;;;;;6269658;28;20796;-74
2023/04/23 08:23:56;;;;;;;;;;;;;;;;;;6270279;28;20332;-74
2023/04/23 08:26:58;;;;;;;2.33;1.90;;;;;;;;;;6272853;28;19929;-73
2023/04/23 08:30:01;;;;;;;2.33;1.73;;;;;;;;;;6270043;28;20053;-73
2023/04/23 08:33:02;;;;;;;2.33;1.75;;;;;;;;;;6267190;28;20318;-73
2023/04/23 08:36:05;;;;;;;1.98;1.50;;;;;;;;;;6261823;28;20133;-72
2023/04/23 08:39:06;;;;;;;2.25;1.67;;;;;;;;;;6269706;28;20057;-76
2023/04/23 08:42:11;;;;;;;3.80;1.75;;;;;;;;;;6275223;28;20049;-72
2023/04/23 08:45:14;;;;;;;4.32;1.50;;;;;;;;;;6273708;28;20103;-72
2023/04/23 08:48:16;;;;;;;2.40;1.50;;;;;;;;;;6274882;28;20144;-74
2023/04/23 08:51:19;;;;;;;2.00;1.75;;;;;;;;;;6275817;28;20063;-73
2023/04/23 08:54:26;;;;;;;4.20;2.67;;;;;;;;;;6276182;28;20081;-72
2023/04/23 08:57:27;;;;;;;235.63;215.68;;;;;;;;;;6274735;28;20283;-72
2023/04/23 09:00:31;;;;;;;521.65;471.52;;;;;;;;;;6276709;28;20055;-72
2023/04/23 09:03:33;;;;;;;516.17;470.50;;;;;;;;;;6273271;28;20064;-74
2023/04/23 09:06:35;;;;;;;5.35;3.47;;;;;;;;;;6271484;28;20148;-74
2023/04/23 09:09:37;;;;;;;3.75;1.98;;;;;;;;;;6278077;28;20056;-72
2023/04/23 09:12:41;;;;;;;2.45;1.85;;;;;;;;;;6273160;28;20485;-73
2023/04/23 09:15:44;;;;;;;5.07;2.03;;;;;;;;;;6274235;28;20053;-72
2023/04/23 09:18:46;;;;;;;4.15;2.47;;;;;;;;;;6275278;28;20070;-72
2023/04/23 09:21:51;;;;;;;2.92;1.73;;;;;;;;;;6275020;28;20079;-74
2023/04/23 09:24:54;;;;;;;2.92;2.05;;;;;;;;;;6272926;28;20072;-72
2023/04/23 09:27:58;;;;;;;3.25;2.45;;;;;;;;;;6270407;28;20053;-73
2023/04/23 09:31:01;;;;;;;2.63;1.92;;;;;;;;;;6274411;28;20053;-76
2023/04/23 09:34:03;;;;;;;3.72;2.67;;;;;;;;;;6272508;28;20250;-76
2023/04/23 09:37:06;;;;;;;3.85;2.42;;;;;;;;;;6274860;28;20049;-72
2023/04/23 09:40:09;;;;;;;5.43;2.85;;;;;;;;;;6270259;28;20060;-72
2023/04/23 09:43:11;;;;;;;3.73;1.93;;;;;;;;;;6273022;28;20346;-73
2023/04/23 09:46:14;;;;;;;3.00;2.10;;;;;;;;;;6272866;28;20452;-75
2023/04/23 09:49:16;;;;;;;2.30;1.63;;;;;;;;;;6271905;28;20057;-75
2023/04/23 09:52:18;;;;;;;6.40;2.35;;;;;;;;;;6268478;28;20049;-76
2023/04/23 09:55:28;;;;;;;4.80;2.40;;;;;;;;;;6272442;28;20384;-77
2023/04/23 09:58:30;;;;;;;3.30;2.22;;;;;;;;;;6269734;28;20114;-74
2023/04/23 10:01:33;;;;;;;3.30;2.53;;;;;;;;;;6270538;28;20053;-75
2023/04/23 10:04:35;;;;;;;4.72;2.75;;;;;;;;;;6270631;28;20057;-75
2023/04/23 10:07:37;;;;;;;6.10;2.33;;;;;;;;;;6272525;28;20110;-77
2023/04/23 10:10:39;;;;;;;2.85;1.90;;;;;;;;;;6270941;28;20052;-75
2023/04/23 10:13:41;;;;;;;4.00;2.15;;;;;;;;;;6269491;28;20102;-77
2023/04/23 10:16:46;;;;;;;3.95;1.90;;;;;;;;;;6274222;28;20044;-76
2023/04/23 10:19:50;;;;;;;3.13;2.50;;;;;;;;;;6273435;28;20363;-76
2023/04/23 10:22:53;;;;;;;3.65;2.03;;;;;;;;;;6274752;28;20110;-76
2023/04/23 10:25:57;;;;;;;3.72;2.58;;;;;;;;;;6272054;28;20072;-78
2023/04/23 10:29:00;;;;;;;6.57;2.85;;;;;;;;;;6274743;28;20080;-79
2023/04/23 10:32:05;;;;;;;4.07;2.72;;;;;;;;;;6271579;28;20053;-76
2023/04/23 10:35:08;;;;;;;3.80;2.45;;;;;;;;;;6268179;28;20057;-75
2023/04/23 10:38:10;;;;;;;4.75;2.20;;;;;;;;;;6274846;28;20056;-75
2023/04/23 10:41:12;;;;;;;6.03;2.75;;;;;;;;;;6270751;28;20052;-76
2023/04/23 10:44:15;;;;;;;5.50;2.40;;;;;;;;;;6267362;28;20062;-77
2023/04/23 10:47:19;;;;;;;;;;;;;;;;;;6276552;28;20466;-75
2023/04/23 10:50:24;;;;;;;;;;;;;;;;;;6269595;28;19931;-75
2023/04/23 10:53:25;;;;;;;3.85;2.33;;;;;;;;;;6269228;28;19978;-75
2023/04/23 10:56:28;;;;;;;5.32;2.20;;;;;;;;;;6270659;28;20041;-75
2023/04/23 10:59:30;;;;;;;3.60;2.47;;;;;;;;;;6268726;28;20064;-75
2023/04/23 11:02:44;;;;;;;3.38;2.25;;;;;;;;;;6270249;28;20456;-79
2023/04/23 11:05:46;;;;;;;4.25;2.45;;;;;;;;;;6272288;28;20048;-74
2023/04/23 11:08:53;;;;;;;5.63;3.25;;;;;;;;;;6273659;28;20049;-74
2023/04/23 11:11:56;;;;;;;5.35;2.80;;;;;;;;;;6271802;28;20100;-74
2023/04/23 11:14:59;;;;;;;3.65;2.45;;;;;;;;;;6274292;28;20057;-74
2023/04/23 11:18:02;;;;;;;3.50;2.83;;;;;;;;;;6270922;28;20063;-76
2023/04/23 11:21:04;;;;;;;;;;;;;;;;;;6269858;28;20068;-75
2023/04/23 11:24:07;;;;;;;3.67;2.63;;;;;;;;;;6270467;28;19929;-74
2023/04/23 11:27:11;;;;;;;7.28;2.85;;;;;;;;;;6274836;28;20083;-76
2023/04/23 11:30:15;;;;;;;4.95;2.85;;;;;;;;;;6272666;28;20064;-75
2023/04/23 11:33:18;;;;;;;4.93;2.40;;;;;;;;;;6277841;28;20072;-73
2023/04/23 11:36:19;;;;;;;4.18;2.83;;;;;;;;;;6275976;28;20053;-73
2023/04/23 11:39:22;;;;;;;2.97;2.47;;;;;;;;;;6276385;28;20152;-74
2023/04/23 11:42:24;;;;;;;4.10;3.13;;;;;;;;;;6272662;28;20098;-74
2023/04/23 11:45:27;;;;;;;4.03;2.75;;;;;;;;;;6273325;28;20112;-76
2023/04/23 11:48:30;;;;;;;4.28;2.58;;;;;;;;;;6274688;28;20049;-74
2023/04/23 11:51:32;;;;;;;;;;;;;;;;;;6277689;28;20044;-74
2023/04/23 11:54:34;;;;;;;5.90;2.85;;;;;;;;;;6273206;28;19924;-72
2023/04/23 11:57:36;;;;;;;4.35;2.80;;;;;;;;;;6276986;28;20060;-72
2023/04/23 12:00:38;;;;;;;4.30;3.13;;;;;;;;;;6272038;28;20111;-74
2023/04/23 12:03:40;;;;;;;3.58;2.65;;;;;;;;;;6281226;28;20060;-74
2023/04/23 12:06:42;;;;;;;;;;;;;;;;;;6279071;28;20056;-73
2023/04/23 12:09:45;;;;;;;4.63;2.90;;;;;;;;;;6275841;28;19925;-75
2023/04/23 12:12:52;;;;;;;3.13;2.45;;;;;;;;;;6271939;28;20096;-73
2023/04/23 12:15:55;;;;;;;4.30;2.50;;;;;;;;;;6276942;28;20049;-74
2023/04/23 12:19:01;;;;;;;4.10;2.78;;;;;;;;;;6279749;28;20102;-75
2023/04/23 12:22:06;;;;;;;4.10;2.80;;;;;;;;;;6283916;28;20333;-76
2023/04/23 12:25:08;;;;;;;3.97;2.50;;;;;;;;;;6279979;28;20080;-75
2023/04/23 12:28:10;;;;;;;3.73;2.83;;;;;;;;;;6277391;28;20332;-77
2023/04/23 12:31:19;;;;;;;3.30;2.53;;;;;;;;;;6281267;28;20722;-77
2023/04/23 12:34:22;;;;;;;4.10;2.60;;;;;;;;;;6279829;28;20052;-73
2023/04/23 12:37:25;;;;;;;4.65;3.40;;;;;;;;;;6278215;28;20056;-85
2023/04/23 12:40:27;;;;;;;3.75;2.67;;;;;;;;;;6275191;28;20056;-73
2023/04/23 12:43:28;;;;;;;5.80;3.07;;;;;;;;;;6282474;28;20077;-73
2023/04/23 12:46:30;;;;;;;3.03;2.40;;;;;;;;;;6275413;28;20217;-74
2023/04/23 12:49:34;;;;;;;2.60;2.40;;;;;;;;;;6277598;28;20241;-73
2023/04/23 12:52:37;;;;;;;3.67;2.95;;;;;;;;;;6275146;28;20106;-80
2023/04/23 12:55:38;;;;;;;3.60;2.50;;;;;;;;;;6274049;28;20111;-74
2023/04/23 12:58:40;;;;;;;6.47;2.50;;;;;;;;;;6272223;28;20064;-74
2023/04/23 13:01:42;;;;;;;2.50;2.15;;;;;;;;;;6275319;28;20475;-78
2023/04/23 13:04:45;;;;;;;5.20;2.60;;;;;;;;;;6273931;28;20531;-75
2023/04/23 13:07:46;;;;;;;3.17;2.20;;;;;;;;;;6274915;28;20107;-74
2023/04/23 13:10:48;;;;;;;7.05;2.70;;;;;;;;;;6271552;28;20190;-74
2023/04/23 13:13:51;;;;;;;4.13;2.75;;;;;;;;;;6275554;28;20130;-80
2023/04/23 13:16:52;;;;;;;3.43;2.10;;;;;;;;;;6273454;28;20054;-75
2023/04/23 13:19:56;;;;;;;3.65;2.35;;;;;;;;;;6272213;28;20049;-86
2023/04/23 13:22:58;;;;;;;5.18;2.30;;;;;;;;;;6274318;28;20048;-77
2023/04/23 13:25:59;;;;;;;2.77;2.47;;;;;;;;;;6275231;28;20119;-76
2023/04/23 13:29:01;;;;;;;4.57;2.85;;;;;;;;;;6272632;28;20060;-75
2023/04/23 13:32:03;;;;;;;3.67;2.83;;;;;;;;;;6273744;28;20130;-76
2023/04/23 13:35:07;;;;;;;4.95;3.20;;;;;;;;;;6272386;28;20112;-75
2023/04/23 13:38:09;;;;;;;2.92;2.42;;;;;;;;;;6272933;28;20062;-75
2023/04/23 13:41:11;;;;;;;3.90;3.10;;;;;;;;;;6271469;28;20130;-77
2023/04/23 13:44:12;;;;;;;5.85;3.50;;;;;;;;;;6270454;28;20240;-76
2023/04/23 13:47:14;;;;;;;3.85;3.15;;;;;;;;;;6275522;28;20049;-79
2023/04/23 13:50:17;;;;;;;5.43;3.10;;;;;;;;;;6272493;28;20122;-84
2023/04/23 13:53:19;;;;;;;;;;;;;;;;;;6275083;28;20080;-79
2023/04/23 13:56:20;;;;;;;7.10;3.88;;;;;;;;;;6272304;28;19916;-79
2023/04/23 13:59:24;;;;;;;6.82;4.07;;;;;;;;;;6271957;28;20061;-75
2023/04/23 14:02:26;;;;;;;4.47;3.40;;;;;;;;;;6271187;28;20075;-75
2023/04/23 14:05:29;;;;;;;5.53;2.47;;;;;;;;;;6272861;28;20117;-75
2023/04/23 14:08:30;;;;;;;;;;;;;;;;;;6276250;28;20060;-76
2023/04/23 14:11:32;;;;;;;3.42;2.72;;;;;;;;;;6275122;28;20104;-75
2023/04/23 14:14:34;;;;;;;4.68;2.70;;;;;;;;;;6272938;28;20055;-74
2023/04/23 14:17:36;;;;;;;3.17;2.88;;;;;;;;;;6273146;28;20057;-76
2023/04/23 14:20:39;;;;;;;4.28;3.17;;;;;;;;;;6275691;28;20045;-77
2023/04/23 14:23:44;;;;;;;;;;;;;;;;;;6273667;28;20060;-75
2023/04/23 14:26:47;;;;;;;5.13;3.30;;;;;;;;;;6270356;28;19917;-76
2023/04/23 14:29:52;;;;;;;5.07;3.60;;;;;;;;;;6273925;28;20335;-85
2023/04/23 14:32:55;;;;;;;3.50;3.03;;;;;;;;;;6271711;28;20356;-76
2023/04/23 14:35:58;;;;;;;4.07;2.83;;;;;;;;;;6269980;28;20171;-76
2023/04/23 14:39:04;;;;;;;5.47;3.90;;;;;;;;;;6270818;28;20052;-82
2023/04/23 14:42:05;;;;;;;3.78;3.35;;;;;;;;;;6272253;28;20079;-81
2023/04/23 14:45:08;;;;;;;6.47;3.70;;;;;;;;;;6273492;28;20283;-76
2023/04/23 14:48:10;;;;;;;3.67;2.90;;;;;;;;;;6265953;28;20102;-75
2023/04/23 14:51:13;;;;;;;5.65;3.33;;;;;;;;;;6273675;28;20045;-77
2023/04/23 14:54:14;;;;;;;;;;;;;;;;;;6276426;28;20049;-75
2023/04/23 14:57:16;;;;;;;4.50;3.08;;;;;;;;;;6270283;28;19987;-77
2023/04/23 15:00:18;;;;;;;4.50;3.05;;;;;;;;;;6270865;28;20057;-79
2023/04/23 15:03:20;;;;;;;4.13;3.45;;;;;;;;;;6271380;28;20281;-78
2023/04/23 15:06:23;;;;;;;3.25;2.95;;;;;;;;;;6270009;28;20049;-76
2023/04/23 15:09:24;;;;;;;4.45;3.33;;;;;;;;;;6266625;28;20056;-73
2023/04/23 15:12:42;;;;;;;6.55;4.05;;;;;;;;;;6269355;28;20103;-75
2023/04/23 15:15:49;;;;;;;4.45;3.10;;;;;;;;;;6271470;28;20144;-76
2023/04/23 15:18:51;;;;;;;2.83;2.22;;;;;;;;;;6270422;28;20115;-71
2023/04/23 15:21:54;;;;;;;4.10;2.05;;;;;;;;;;6270012;28;20106;-73
2023/04/23 15:24:55;;;;;;;4.70;2.03;;;;;;;;;;6273750;28;20055;-73
2023/04/23 15:27:57;;;;;;;3.92;1.90;;;;;;;;;;6268983;28;20053;-74
2023/04/23 15:30:59;;;;;;;26.17;17.33;;;;;;;;;;6269156;28;20068;-74
2023/04/23 15:34:01;;;;;;;101.03;57.42;;;;;;;;;;6274539;28;20065;-76
2023/04/23 15:37:05;;;;;;;40.55;23.95;;;;;;;;;;6271064;28;20052;-76
2023/04/23 15:40:08;;;;;;;22.50;13.27;;;;;;;;;;6272321;28;20119;-74
2023/04/23 15:43:11;;;;;;;8.30;2.53;;;;;;;;;;6270578;28;20376;-71
2023/04/23 15:46:12;;;;;;;3.65;1.65;;;;;;;;;;6268375;28;21358;-76
2023/04/23 15:49:14;;;;;;;2.70;1.65;;;;;;;;;;6270997;28;20206;-72
2023/04/23 15:52:17;;;;;;;4.97;2.15;;;;;;;;;;6274329;28;20424;-71
2023/04/23 15:55:19;;;;;;;;;;;;;;;;;;6276805;28;20103;-72
2023/04/23 15:58:21;;;;;;;32.40;11.27;;;;;;;;;;6270600;28;19988;-73
2023/04/23 16:01:22;;;;;;;7.70;3.03;;;;;;;;;;6276119;28;20116;-74
2023/04/23 16:04:24;;;;;;;2.15;1.50;;;;;;;;;;6276260;28;20052;-73
2023/04/23 16:07:27;;;;;;;2.15;1.42;;;;;;;;;;6269956;28;20491;-71
2023/04/23 16:10:32;;;;;;;2.13;1.20;;;;;;;;;;6274448;28;20041;-72
2023/04/23 16:13:34;;;;;;;2.22;1.30;;;;;;;;;;6276480;28;20056;-71
2023/04/23 16:16:37;;;;;;;2.30;1.60;;;;;;;;;;6276476;28;20063;-72
2023/04/23 16:19:39;;;;;;;2.50;1.50;;;;;;;;;;6277407;28;20111;-71
2023/04/23 16:22:42;;;;;;;3.45;1.50;;;;;;;;;;6274055;28;20052;-72
2023/04/23 16:25:44;;;;;;;2.38;1.40;;;;;;;;;;6271050;28;20053;-71
2023/04/23 16:28:46;;;;;;;3.08;1.65;;;;;;;;;;6272365;28;20057;-72
2023/04/23 16:31:48;;;;;;;3.38;1.20;;;;;;;;;;6275331;28;20049;-74
2023/04/23 16:34:49;;;;;;;41.10;9.10;;;;;;;;;;6274623;28;20049;-71
2023/04/23 16:37:52;;;;;;;2.90;1.20;;;;;;;;;;6273882;28;20052;-71
2023/04/23 16:40:54;;;;;;;1.88;1.40;;;;;;;;;;6273308;28;20037;-73
2023/04/23 16:43:56;;;;;;;4.57;1.48;;;;;;;;;;6270807;28;20408;-72
2023/04/23 16:46:57;;;;;;;2.38;1.05;;;;;;;;;;6279428;28;20048;-76
2023/04/23 16:49:59;;;;;;;2.72;1.58;;;;;;;;;;6274557;28;20343;-73
2023/04/23 16:53:02;;;;;;;4.65;1.60;;;;;;;;;;6275417;28;20052;-72
2023/04/23 16:56:04;;;;;;;2.58;1.30;;;;;;;;;;6271872;28;20117;-78
2023/04/23 16:59:06;;;;;;;3.95;1.42;;;;;;;;;;6272989;28;20051;-76
2023/04/23 17:02:07;;;;;;;2.50;1.60;;;;;;;;;;6270341;28;20075;-73
2023/04/23 17:05:09;;;;;;;4.13;1.50;;;;;;;;;;6269684;28;20367;-72
2023/04/23 17:08:13;;;;;;;9.13;4.43;;;;;;;;;;6276202;28;20340;-73
2023/04/23 17:11:14;;;;;;;6.68;4.18;;;;;;;;;;6273298;28;20053;-73
2023/04/23 17:14:16;;;;;;;3.75;1.60;;;;;;;;;;6275048;28;20057;-70
2023/04/23 17:17:17;;;;;;;3.90;1.63;;;;;;;;;;6271660;28;20049;-73
2023/04/23 17:20:20;;;;;;;7.97;5.65;;;;;;;;;;6273759;28;20045;-72
2023/04/23 17:23:23;;;;;;;8.88;2.72;;;;;;;;;;6277378;28;20202;-73
2023/04/23 17:26:25;;;;;;;4.70;1.65;;;;;;;;;;6260723;28;20194;-73
2023/04/23 17:29:27;;;;;;;2.80;1.40;;;;;;;;;;6271816;28;20052;-72
2023/04/23 17:32:28;;;;;;;2.42;1.50;;;;;;;;;;6273145;28;20068;-72
2023/04/23 17:35:31;;;;;;;4.55;1.70;;;;;;;;;;6273045;28;20065;-72
2023/04/23 17:38:34;;;;;;;4.05;1.88;;;;;;;;;;6272913;28;20851;-73
2023/04/23 17:41:36;;;;;;;;;;;;;;;;;;6273676;28;20056;-72
2023/04/23 17:44:37;;;;;;;3.92;1.60;;;;;;;;;;6271921;28;19924;-78
2023/04/23 17:47:39;;;;;;;8.95;1.90;;;;;;;;;;6269003;28;20060;-73
2023/04/23 17:50:41;;;;;;;3.22;1.60;;;;;;;;;;6271722;28;20068;-76
2023/04/23 17:53:47;;;;;;;2.28;1.52;;;;;;;;;;6273223;28;20056;-76
2023/04/23 17:56:48;;;;;;;3.20;2.00;;;;;;;;;;6273415;28;20049;-76
2023/04/23 17:59:50;;;;;;;5.07;1.70;;;;;;;;;;6273084;28;20086;-74
2023/04/23 18:02:51;;;;;;;2.78;1.73;;;;;;;;;;6273434;28;20335;-75
2023/04/23 18:05:53;;;;;;;2.78;1.67;;;;;;;;;;6273565;28;20057;-79
2023/04/23 18:08:56;;;;;;;6.38;2.13;;;;;;;;;;6273981;28;20136;-75
2023/04/23 18:11:59;;;;;;;7.78;2.08;;;;;;;;;;6271240;28;20107;-81
2023/04/23 18:15:00;;;;;;;16.95;15.75;;;;;;;;;;6273117;28;20397;-79